Time;durP1;ratioP1;P1;durP2;ratioP2;P2;SDS_P1;SDS_P2;PMS_P1;PMS_P2;Temp;Humidity;BMP_temperature;BMP_pressure;BME280_temperature;BME280_humidity;BME280_pressure;Samples;Min_cycle;Max_cycle;Signal;HPM_P1;HPM_P2
2022/05/07 11:05:02;;;;;;;9.52;6.10;;;22.20;90.10;;;;;;5114620;23;20047;-82
2022/05/07 11:07:28;;;;;;;10.50;6.88;;;22.20;90.60;;;;;;4955179;29;20553;-76
2022/05/07 11:09:54;;;;;;;9.43;6.13;;;21.70;90.40;;;;;;4955553;28;20031;-78
2022/05/07 11:12:22;;;;;;;9.07;5.70;;;21.40;91.50;;;;;;4968942;28;20023;-82
2022/05/07 11:14:48;;;;;;;8.93;5.32;;;21.90;89.60;;;;;;4973109;28;20521;-79
2022/05/07 11:17:17;;;;;;;11.23;6.57;;;22.20;90.00;;;;;;4976375;28;20023;-81
2022/05/07 11:19:43;;;;;;;19.23;6.45;;;22.10;86.30;;;;;;4957081;28;20423;-79
2022/05/07 11:22:10;;;;;;;29.58;6.55;;;22.30;88.60;;;;;;4955832;28;20066;-81
2022/05/07 11:24:36;;;;;;;12.32;5.50;;;21.60;89.30;;;;;;4955992;28;20430;-80
2022/05/07 11:27:05;;;;;;;8.32;5.53;;;21.40;91.00;;;;;;4956261;29;20150;-79
2022/05/07 11:29:31;;;;;;;18.33;5.90;;;22.00;89.20;;;;;;4957937;28;20024;-81
2022/05/07 11:32:07;;;;;;;13.80;5.72;;;21.90;86.80;;;;;;4956200;28;20066;-80
2022/05/07 11:34:40;;;;;;;12.30;5.57;;;22.20;88.80;;;;;;4956266;28;20174;-81
2022/05/07 11:37:19;;;;;;;11.18;5.57;;;21.90;90.10;;;;;;4960958;28;20490;-79
2022/05/07 11:39:55;;;;;;;9.98;5.10;;;21.10;87.70;;;;;;4954226;28;20054;-81
2022/05/07 11:42:39;;;;;;;12.48;5.65;;;21.80;87.00;;;;;;4955990;28;20487;-81
2022/05/07 11:48:05;;;;;;;12.98;5.40;;;21.70;84.90;;;;;;4955965;29;20403;-79
2022/05/07 11:50:42;;;;;;;15.60;5.93;;;21.70;84.20;;;;;;4956202;28;20383;-81
2022/05/07 11:53:14;;;;;;;12.65;6.30;;;22.20;82.10;;;;;;4955810;28;20068;-78
2022/05/07 11:55:40;;;;;;;10.07;4.93;;;22.60;81.10;;;;;;4955716;28;20446;-80
2022/05/07 11:58:17;;;;;;;8.88;5.25;;;22.90;82.90;;;;;;4961479;28;20030;-76
2022/05/07 12:00:44;;;;;;;12.52;5.38;;;22.50;82.40;;;;;;4959740;28;20037;-77
2022/05/07 12:03:10;;;;;;;7.40;4.78;;;22.60;81.70;;;;;;4957410;28;20019;-78
2022/05/07 12:05:41;;;;;;;9.30;6.00;;;22.10;82.60;;;;;;4962922;28;20038;-77
2022/05/07 12:08:21;;;;;;;8.60;5.00;;;22.10;80.50;;;;;;4962777;28;20051;-77
2022/05/07 12:10:52;;;;;;;10.32;5.78;;;21.80;82.70;;;;;;4957420;28;20534;-76
2022/05/07 12:13:22;;;;;;;8.63;4.50;;;21.40;82.10;;;;;;4956333;28;20094;-75
2022/05/07 15:37:45;;;;;;;3.35;2.65;;;22.20;67.90;;;;;;5745132;23;20067;-76
2022/05/07 15:40:11;;;;;;;6.38;2.20;;;22.40;69.10;;;;;;4957930;28;20028;-76
2022/05/07 15:42:37;;;;;;;3.17;2.28;;;22.40;66.10;;;;;;4954488;28;20036;-77
2022/05/07 15:45:04;;;;;;;4.90;2.50;;;22.50;66.80;;;;;;4960411;28;20022;-76
2022/05/07 15:47:30;;;;;;;5.28;2.20;;;22.50;66.60;;;;;;4954719;28;20019;-76
2022/05/07 15:49:56;;;;;;;3.88;2.55;;;22.50;67.00;;;;;;4957987;28;20059;-77
2022/05/07 15:52:22;;;;;;;6.20;2.50;;;22.70;66.20;;;;;;4968141;28;20059;-76
2022/05/07 15:54:47;;;;;;;4.25;2.05;;;22.70;66.00;;;;;;4963055;28;20117;-77
2022/05/07 15:57:13;;;;;;;6.97;2.42;;;22.70;65.00;;;;;;4962213;28;20027;-76
2022/05/07 15:59:39;;;;;;;6.20;2.25;;;22.90;66.00;;;;;;4966783;28;20026;-77
2022/05/07 16:02:05;;;;;;;4.03;2.40;;;22.80;64.70;;;;;;4967322;28;20064;-76
2022/05/07 16:04:31;;;;;;;4.75;2.15;;;22.70;64.60;;;;;;4968146;28;20026;-76
2022/05/07 16:06:57;;;;;;;6.78;2.10;;;22.70;63.80;;;;;;4972841;28;20023;-76
2022/05/07 16:09:23;;;;;;;6.88;1.95;;;22.70;64.70;;;;;;4962008;28;20011;-76
2022/05/07 16:11:48;;;;;;;7.35;2.15;;;22.40;64.20;;;;;;4963254;28;20027;-77
2022/05/07 16:14:14;;;;;;;5.03;2.00;;;22.10;65.60;;;;;;4966697;28;20118;-76
2022/05/07 16:16:40;;;;;;;6.18;2.38;;;22.30;65.30;;;;;;4966087;28;20121;-77
2022/05/07 16:19:06;;;;;;;9.43;1.95;;;22.50;64.50;;;;;;4957239;28;20027;-76
2022/05/07 16:21:32;;;;;;;7.20;2.28;;;22.40;64.70;;;;;;4952462;28;20088;-77
2022/05/07 16:26:42;;;;;;;5.60;2.28;;;22.40;65.40;;;;;;4953412;28;20065;-76
2022/05/07 16:29:08;;;;;;;3.85;2.25;;;22.50;65.00;;;;;;4955954;28;20019;-76
2022/05/07 16:31:34;;;;;;;3.15;1.80;;;22.50;64.40;;;;;;4960460;28;20038;-76
2022/05/07 16:34:03;;;;;;;3.13;1.90;;;22.50;64.70;;;;;;4954272;28;20023;-75
2022/05/07 16:36:29;;;;;;;3.22;2.03;;;22.50;64.50;;;;;;4955991;28;20110;-76
2022/05/07 16:38:54;;;;;;;4.95;1.85;;;22.30;64.50;;;;;;4950283;28;20078;-76
2022/05/07 16:41:20;;;;;;;3.42;2.20;;;22.40;65.80;;;;;;4939501;29;20060;-77
2022/05/07 16:43:46;;;;;;;3.53;2.10;;;22.30;66.20;;;;;;4953856;29;20031;-76
2022/05/07 16:46:14;;;;;;;3.28;2.10;;;22.30;66.50;;;;;;4952185;28;20023;-76
2022/05/07 16:48:40;;;;;;;3.95;1.75;;;22.10;65.00;;;;;;4953806;29;20490;-77
2022/05/07 16:51:05;;;;;;;3.53;2.03;;;22.30;67.00;;;;;;4951782;29;20113;-76
2022/05/07 16:53:31;;;;;;;4.25;1.70;;;22.20;64.70;;;;;;4934339;28;20034;-76
2022/05/07 16:55:56;;;;;;;3.30;2.13;;;22.20;64.80;;;;;;4954243;29;20364;-77
2022/05/07 16:58:22;;;;;;;3.17;1.60;;;21.80;65.50;;;;;;4943775;28;20373;-76
2022/05/07 17:00:48;;;;;;;5.53;2.10;;;21.60;65.30;;;;;;4916629;29;20385;-76
2022/05/07 17:03:13;;;;;;;8.57;2.08;;;21.60;65.90;;;;;;4916520;29;20396;-76
2022/05/07 17:05:40;;;;;;;3.72;1.88;;;21.60;65.10;;;;;;4916433;29;20469;-76
2022/05/07 17:08:06;;;;;;;4.88;2.03;;;21.50;65.80;;;;;;4923377;29;20019;-76
2022/05/07 17:10:31;;;;;;;4.13;1.83;;;21.40;67.20;;;;;;4954026;28;20027;-76
2022/05/07 17:12:57;;;;;;;5.15;1.70;;;21.20;67.50;;;;;;4935254;29;20039;-76
2022/05/07 17:15:23;;;;;;;2.88;1.63;;;21.10;68.40;;;;;;4935139;29;20387;-76
2022/05/07 17:17:48;;;;;;;6.30;2.13;;;21.10;67.70;;;;;;4932696;29;20400;-76
2022/05/07 17:20:14;;;;;;;4.50;2.00;;;21.30;68.00;;;;;;4918763;29;20028;-76
2022/05/07 17:22:40;;;;;;;4.90;1.77;;;21.30;67.50;;;;;;4935227;29;20039;-76
2022/05/07 17:25:08;;;;;;;5.72;1.70;;;21.40;68.10;;;;;;4935392;29;20416;-76
2022/05/07 17:27:34;;;;;;;3.58;1.85;;;21.30;69.20;;;;;;4934744;29;20028;-76
2022/05/07 17:29:59;;;;;;;4.30;2.15;;;21.30;68.50;;;;;;4933832;29;20034;-76
2022/05/07 17:32:25;;;;;;;4.85;1.90;;;21.30;68.80;;;;;;4935305;29;20032;-76
2022/05/07 17:34:50;;;;;;;4.00;1.88;;;21.30;68.60;;;;;;4935071;29;20027;-76
2022/05/07 17:37:16;;;;;;;3.28;1.80;;;21.20;68.70;;;;;;4934963;29;20089;-76
2022/05/07 17:39:42;;;;;;;2.53;1.67;;;21.30;68.60;;;;;;4921235;29;20046;-76
2022/05/07 17:42:07;;;;;;;3.88;1.88;;;21.20;69.30;;;;;;4928583;29;20024;-76
2022/05/07 17:44:33;;;;;;;5.38;1.90;;;21.10;69.60;;;;;;4951981;29;20059;-76
2022/05/07 17:46:59;;;;;;;5.32;1.80;;;21.10;69.30;;;;;;4954292;29;20024;-76
2022/05/07 17:49:27;;;;;;;12.07;2.90;;;21.00;70.80;;;;;;4934728;29;20028;-76
2022/05/07 17:51:53;;;;;;;8.20;2.53;;;21.00;70.80;;;;;;4949524;29;20434;-77
2022/05/07 17:54:22;;;;;;;5.35;1.90;;;21.00;70.80;;;;;;4951129;28;20066;-77
2022/05/07 17:56:47;;;;;;;3.78;2.10;;;20.90;71.10;;;;;;4937766;28;21368;-75
2022/05/07 17:59:14;;;;;;;6.05;1.90;;;20.90;70.30;;;;;;4942743;28;20163;-77
2022/05/07 18:01:42;;;;;;;8.95;1.60;;;20.80;71.60;;;;;;4951282;29;20034;-77
2022/05/07 18:04:08;;;;;;;4.20;1.75;;;20.80;71.20;;;;;;4957877;28;20102;-76
2022/05/07 18:06:34;;;;;;;3.65;1.50;;;20.60;70.90;;;;;;4955723;29;20028;-77
2022/05/07 18:09:01;;;;;;;2.90;2.00;;;20.50;71.30;;;;;;4923231;29;20035;-76
2022/05/07 18:11:26;;;;;;;2.83;1.73;;;20.40;71.40;;;;;;4950213;28;20476;-77
2022/05/07 18:14:09;;;;;;;4.60;2.15;;;20.40;71.90;;;;;;4929604;29;20032;-84
2022/05/07 18:16:37;;;;;;;3.47;2.05;;;20.30;73.20;;;;;;4939528;29;20156;-83
2022/05/07 18:19:08;;;;;;;3.72;2.03;;;20.30;73.20;;;;;;4957367;28;20050;-87
2022/05/07 18:21:36;;;;;;;6.40;2.08;;;20.10;74.40;;;;;;4956295;28;20106;-85
2022/05/07 18:24:05;;;;;;;9.00;2.47;;;20.00;75.10;;;;;;4955900;28;20023;-87
2022/05/07 18:26:31;;;;;;;8.05;2.67;;;20.00;75.60;;;;;;4952941;29;20108;-80
2022/05/07 18:28:57;;;;;;;6.65;1.90;;;20.00;77.20;;;;;;4945777;28;20101;-88
2022/05/07 18:31:23;;;;;;;9.02;2.50;;;19.80;76.70;;;;;;4940276;28;20564;-85
2022/05/07 18:33:52;;;;;;;4.00;2.15;;;19.80;76.00;;;;;;4941467;29;20062;-81
2022/05/07 18:44:31;;;;;;;4.43;2.40;;;19.50;77.90;;;;;;4943573;29;20402;-81
2022/05/07 18:46:59;;;;;;;4.97;2.42;;;19.40;78.60;;;;;;4954257;29;20023;-88
2022/05/07 18:49:26;;;;;;;7.88;2.53;;;19.30;78.70;;;;;;4952122;28;20085;-84
2022/05/07 18:51:51;;;;;;;6.57;2.65;;;19.20;82.10;;;;;;4954716;28;20024;-82
2022/05/07 18:54:17;;;;;;;4.97;2.65;;;19.10;81.90;;;;;;4945510;28;20032;-84
2022/05/07 18:59:28;;;;;;;4.57;2.55;;;19.00;82.60;;;;;;4942154;29;20043;-83
2022/05/07 19:01:57;;;;;;;9.88;2.35;;;18.90;83.60;;;;;;4954989;29;20027;-84
2022/05/07 19:04:26;;;;;;;5.40;2.47;;;18.80;84.20;;;;;;4951494;28;20098;-84
2022/05/07 19:06:52;;;;;;;5.47;2.58;;;18.70;85.70;;;;;;4956079;28;20016;-83
2022/05/07 19:09:18;;;;;;;5.80;2.40;;;18.70;87.30;;;;;;4952933;28;20050;-85
2022/05/07 19:11:43;;;;;;;5.80;3.00;;;18.60;87.70;;;;;;4948902;28;20106;-87
2022/05/07 19:14:11;;;;;;;6.68;3.17;;;18.50;88.40;;;;;;4948024;28;20122;-87
2022/05/07 19:16:38;;;;;;;8.90;2.97;;;18.40;88.90;;;;;;4933230;29;20530;-85
2022/05/07 19:19:05;;;;;;;8.70;3.53;;;18.30;89.30;;;;;;4932033;28;20123;-85
2022/05/07 19:21:35;;;;;;;7.53;3.40;;;18.30;90.50;;;;;;4949839;29;20019;-86
2022/05/07 19:24:01;;;;;;;5.97;4.00;;;18.20;91.30;;;;;;4936070;29;20028;-85
2022/05/07 19:26:28;;;;;;;7.22;4.53;;;18.20;91.40;;;;;;4938315;29;20020;-86
2022/05/07 19:28:54;;;;;;;27.25;6.25;;;18.10;91.30;;;;;;4937823;29;20020;-89
2022/05/07 19:31:20;;;;;;;17.83;7.40;;;18.00;91.70;;;;;;4935465;29;20063;-87
2022/05/07 19:33:47;;;;;;;10.07;5.60;;;17.80;91.90;;;;;;4936683;29;20537;-89
2022/05/07 19:36:13;;;;;;;10.30;5.15;;;17.70;91.20;;;;;;4936489;29;20027;-87
2022/05/07 19:38:39;;;;;;;13.93;5.10;;;17.60;91.50;;;;;;4930132;29;20051;-88
2022/05/07 19:41:05;;;;;;;11.25;5.82;;;17.50;92.00;;;;;;4925531;29;20058;-89
2022/05/07 19:43:31;;;;;;;9.98;4.47;;;17.30;92.40;;;;;;4936943;29;20027;-90
2022/05/07 19:46:00;;;;;;;7.25;3.78;;;17.30;92.50;;;;;;4936092;29;20019;-88
2022/05/07 19:48:26;;;;;;;6.20;3.90;;;17.20;92.20;;;;;;4930297;29;20032;-90
2022/05/07 19:50:52;;;;;;;13.48;4.40;;;17.10;92.90;;;;;;4933271;29;20035;-87
2022/05/07 19:53:20;;;;;;;6.28;3.45;;;17.00;93.10;;;;;;4935265;29;20036;-90
2022/05/07 19:55:46;;;;;;;8.38;3.55;;;17.10;93.40;;;;;;4941296;29;20057;-88
2022/05/07 19:58:12;;;;;;;8.60;3.45;;;17.00;93.30;;;;;;4936983;28;20468;-89
2022/05/07 20:00:38;;;;;;;10.10;3.88;;;17.20;92.50;;;;;;4935211;29;20036;-86
2022/05/07 20:03:04;;;;;;;11.25;3.45;;;17.30;92.70;;;;;;4935789;29;20032;-85
2022/05/07 20:05:30;;;;;;;6.90;3.13;;;17.20;92.90;;;;;;4935501;29;20027;-86
2022/05/07 20:07:56;;;;;;;7.28;2.97;;;17.30;92.40;;;;;;4934174;29;20035;-86
2022/05/07 20:10:22;;;;;;;5.53;3.00;;;17.20;92.70;;;;;;4916280;28;20342;-87
2022/05/07 20:12:48;;;;;;;6.43;2.95;;;17.30;92.60;;;;;;4946332;29;20035;-86
2022/05/07 20:15:15;;;;;;;7.30;2.70;;;17.20;92.50;;;;;;4934260;29;20032;-88
2022/05/07 20:17:41;;;;;;;6.35;3.15;;;17.30;92.50;;;;;;4936399;29;20063;-87
2022/05/07 20:20:07;;;;;;;7.38;2.75;;;17.30;92.90;;;;;;4934766;29;20063;-87
2022/05/07 20:22:33;;;;;;;6.78;2.72;;;17.20;92.90;;;;;;4934660;29;20035;-87
2022/05/07 20:25:07;;;;;;;4.88;2.40;;;17.20;92.20;;;;;;4926565;29;20403;-88
2022/05/07 20:27:35;;;;;;;7.00;2.85;;;17.20;92.50;;;;;;4951790;29;20031;-88
2022/05/07 20:30:03;;;;;;;5.13;2.88;;;17.10;93.20;;;;;;4955285;28;20020;-88
2022/05/07 20:32:29;;;;;;;6.78;2.65;;;17.20;93.10;;;;;;4955337;28;20097;-87
2022/05/07 20:34:54;;;;;;;5.28;3.00;;;17.10;93.10;;;;;;4953998;28;20479;-87
2022/05/07 20:37:22;;;;;;;7.65;3.08;;;17.10;93.20;;;;;;4953718;28;20055;-87
2022/05/07 20:39:49;;;;;;;7.95;2.97;;;17.10;93.60;;;;;;4949996;28;20074;-87
2022/05/07 20:42:15;;;;;;;5.63;3.00;;;17.00;93.80;;;;;;4953321;28;20035;-87
2022/05/07 20:47:25;;;;;;;11.27;2.85;;;17.00;93.60;;;;;;4955459;29;20038;-88
2022/05/07 20:49:51;;;;;;;4.60;3.17;;;17.10;92.90;;;;;;4953951;28;20028;-87
2022/05/07 20:52:18;;;;;;;5.15;2.97;;;17.10;93.30;;;;;;4952955;29;20082;-87
2022/05/07 20:54:44;;;;;;;5.88;2.90;;;17.00;93.70;;;;;;4952989;29;20043;-88
2022/05/07 20:57:09;;;;;;;7.53;2.35;;;16.90;94.20;;;;;;4953584;29;20031;-88
2022/05/07 20:59:35;;;;;;;10.00;3.03;;;16.90;94.30;;;;;;4953776;28;20055;-87
2022/05/07 21:02:01;;;;;;;6.20;3.45;;;16.90;94.10;;;;;;4952866;28;20031;-87
2022/05/07 21:04:28;;;;;;;6.82;3.17;;;17.00;93.80;;;;;;4954096;28;20079;-87
2022/05/07 21:06:54;;;;;;;4.47;2.83;;;17.00;93.90;;;;;;4954377;28;20023;-87
2022/05/07 21:09:20;;;;;;;5.28;2.90;;;17.00;94.00;;;;;;4916191;28;20035;-86
2022/05/07 21:11:47;;;;;;;8.77;3.30;;;17.00;94.40;;;;;;4915841;29;20040;-87
2022/05/07 21:14:13;;;;;;;7.70;2.70;;;17.00;94.20;;;;;;4925151;29;20039;-87
2022/05/07 21:16:39;;;;;;;4.85;2.80;;;17.00;94.60;;;;;;4935088;29;20060;-87
2022/05/07 21:19:06;;;;;;;6.00;2.60;;;17.10;94.10;;;;;;4933253;29;20067;-87
2022/05/07 21:21:31;;;;;;;5.30;3.10;;;17.10;94.20;;;;;;4933507;29;20039;-87
2022/05/07 21:24:00;;;;;;;6.40;2.92;;;17.10;94.40;;;;;;4916814;29;20028;-87
2022/05/07 21:26:35;;;;;;;10.85;3.30;;;17.10;94.10;;;;;;4914516;29;20039;-88
2022/05/07 21:29:21;;;;;;;5.85;3.10;;;17.10;94.20;;;;;;4914891;29;20027;-88
2022/05/07 21:31:46;;;;;;;6.00;2.60;;;17.00;94.30;;;;;;4914686;29;20189;-88
2022/05/07 21:34:12;;;;;;;7.15;3.10;;;17.00;94.20;;;;;;4917416;29;20047;-87
2022/05/07 21:36:44;;;;;;;7.32;3.03;;;17.00;94.30;;;;;;4937084;29;20031;-87
2022/05/07 21:39:10;;;;;;;6.47;3.40;;;17.00;94.50;;;;;;4938086;29;20040;-87
2022/05/07 21:41:35;;;;;;;5.60;3.40;;;17.00;94.70;;;;;;4937031;29;20027;-87
2022/05/07 21:44:03;;;;;;;5.80;3.28;;;16.90;94.90;;;;;;4938279;29;20027;-86
2022/05/07 21:46:30;;;;;;;11.10;3.50;;;16.80;95.10;;;;;;4936798;29;20026;-86
2022/05/07 21:48:56;;;;;;;6.95;2.88;;;16.80;95.40;;;;;;4937328;29;20512;-87
2022/05/07 21:53:53;;;;;;;4.72;3.00;;;16.90;95.70;;;;;;4956923;29;20020;-87
2022/05/07 21:56:19;;;;;;;7.13;3.63;;;16.90;96.20;;;;;;4952300;29;20039;-88
2022/05/07 21:58:45;;;;;;;6.15;3.22;;;16.90;95.90;;;;;;4954218;29;20028;-87
2022/05/07 22:01:10;;;;;;;5.75;3.17;;;16.90;96.20;;;;;;4957115;28;20039;-87
2022/05/07 22:03:36;;;;;;;11.23;3.78;;;16.80;96.40;;;;;;4955830;28;20487;-87
2022/05/07 22:06:02;;;;;;;5.45;3.20;;;16.80;96.60;;;;;;4954636;29;20031;-87
2022/05/07 22:08:29;;;;;;;8.48;3.25;;;16.80;97.20;;;;;;4917293;29;20027;-87
2022/05/07 22:10:55;;;;;;;8.70;3.15;;;16.80;97.30;;;;;;4946121;29;20186;-87
2022/05/07 22:13:21;;;;;;;5.05;3.30;;;16.80;97.60;;;;;;4956775;29;20546;-87
2022/05/07 22:15:48;;;;;;;11.50;3.67;;;16.80;98.00;;;;;;4956932;29;20166;-87
2022/05/07 22:18:14;;;;;;;7.97;3.53;;;16.80;98.20;;;;;;4956641;28;20027;-87
2022/05/07 22:20:40;;;;;;;7.90;3.20;;;16.80;98.30;;;;;;4955481;28;20539;-87
2022/05/07 22:23:07;;;;;;;6.93;3.47;;;16.80;98.40;;;;;;4936439;28;20039;-88
2022/05/07 22:25:33;;;;;;;10.70;3.95;;;16.80;98.80;;;;;;4954401;29;20271;-87
2022/05/07 22:27:59;;;;;;;8.00;3.30;;;16.80;99.10;;;;;;4956543;28;20023;-88
2022/05/07 22:30:25;;;;;;;9.38;4.25;;;16.70;99.40;;;;;;4945422;28;20031;-87
2022/05/07 22:32:50;;;;;;;6.13;3.25;;;16.70;99.30;;;;;;4936438;29;20028;-87
2022/05/07 22:35:16;;;;;;;6.30;3.38;;;16.60;99.60;;;;;;4951326;29;20488;-88
2022/05/07 22:37:42;;;;;;;5.28;3.38;;;16.60;99.80;;;;;;4920105;28;20040;-88
2022/05/07 22:40:08;;;;;;;6.30;3.50;;;16.60;99.90;;;;;;4952030;28;20118;-88
2022/05/07 22:42:34;;;;;;;10.07;3.38;;;16.60;99.90;;;;;;4954970;29;20027;-88
2022/05/07 22:44:59;;;;;;;7.85;3.70;;;16.50;99.90;;;;;;4954100;28;20037;-87
2022/05/07 22:47:25;;;;;;;6.82;3.70;;;16.50;99.90;;;;;;4954965;29;20114;-87
2022/05/07 22:49:58;;;;;;;12.25;4.32;;;16.50;99.90;;;;;;4955194;28;20051;-87
2022/05/07 22:52:24;;;;;;;10.63;3.60;;;16.50;99.90;;;;;;4945476;28;20027;-87
2022/05/07 22:54:51;;;;;;;9.10;3.80;;;16.40;99.90;;;;;;4954997;28;20031;-87
2022/05/07 22:57:17;;;;;;;8.85;4.00;;;16.40;99.90;;;;;;4955133;28;20035;-88
2022/05/07 22:59:43;;;;;;;9.70;3.20;;;16.40;99.90;;;;;;4956784;28;20058;-87
2022/05/07 23:02:08;;;;;;;8.48;3.40;;;16.30;99.90;;;;;;4957201;28;20027;-88
2022/05/07 23:04:34;;;;;;;7.63;4.45;;;16.30;99.90;;;;;;4955131;28;20492;-88
2022/05/07 23:07:00;;;;;;;9.23;4.00;;;16.20;99.90;;;;;;4956787;28;20027;-87
2022/05/07 23:09:25;;;;;;;8.55;4.03;;;16.20;99.90;;;;;;4956766;28;20042;-87
2022/05/07 23:11:51;;;;;;;11.18;4.47;;;16.10;99.90;;;;;;4956800;28;20513;-87
2022/05/07 23:14:17;;;;;;;6.53;4.40;;;16.10;99.90;;;;;;4956659;29;20031;-87
2022/05/07 23:16:43;;;;;;;11.18;4.90;;;16.10;99.90;;;;;;4956685;29;20031;-88
2022/05/07 23:19:08;;;;;;;11.40;4.43;;;16.00;99.90;;;;;;4956418;28;20039;-88
2022/05/07 23:21:34;;;;;;;10.90;4.60;;;16.10;99.90;;;;;;4941697;28;20028;-88
2022/05/07 23:24:00;;;;;;;6.43;4.05;;;16.00;99.90;;;;;;4935697;29;20038;-89
2022/05/07 23:26:26;;;;;;;9.77;4.63;;;15.90;99.90;;;;;;4936448;29;20491;-88
2022/05/07 23:28:52;;;;;;;9.07;4.57;;;15.90;99.90;;;;;;4935459;29;20404;-88
2022/05/07 23:31:18;;;;;;;7.72;3.65;;;15.90;99.90;;;;;;4936838;29;20399;-88
2022/05/07 23:33:44;;;;;;;9.68;4.25;;;15.90;99.90;;;;;;4934774;29;20079;-88
2022/05/07 23:36:10;;;;;;;11.98;4.53;;;15.80;99.90;;;;;;4946742;29;20530;-88
2022/05/07 23:38:35;;;;;;;15.70;4.43;;;15.70;99.90;;;;;;4948011;29;20135;-87
2022/05/07 23:41:01;;;;;;;7.05;4.43;;;15.70;99.90;;;;;;4934291;29;20031;-87
2022/05/07 23:43:27;;;;;;;8.55;4.65;;;15.70;99.90;;;;;;4934883;29;20506;-87
2022/05/07 23:45:53;;;;;;;8.25;4.07;;;15.70;99.90;;;;;;4934900;29;20483;-87
2022/05/07 23:48:19;;;;;;;9.15;4.60;;;15.60;99.90;;;;;;4934635;29;20032;-86
2022/05/07 23:50:45;;;;;;;8.57;4.60;;;15.60;99.90;;;;;;4923915;29;20034;-87
2022/05/07 23:53:11;;;;;;;10.15;4.38;;;15.60;99.90;;;;;;4916022;29;20032;-87
2022/05/07 23:55:40;;;;;;;11.32;4.38;;;15.60;99.90;;;;;;4916873;29;20043;-87
2022/05/07 23:58:06;;;;;;;7.32;4.30;;;15.60;99.90;;;;;;4916101;29;20576;-88
